sensor_id;sensor_type;location;lat;lon;timestamp;pressure;altitude;pressure_sealevel;temperature;humidity
63204;BME280;49297;43.210;27.914;2023-07-22T00:00:50;101074.03;;;26.10;nan
63204;BME280;49297;43.210;27.914;2023-07-22T00:03:18;101073.41;;;26.08;75.72
63204;BME280;49297;43.210;27.914;2023-07-22T00:05:46;101072.81;;;26.06;76.38
63204;BME280;49297;43.210;27.914;2023-07-22T00:08:15;101079.53;;;26.03;76.07
63204;BME280;49297;43.210;27.914;2023-07-22T00:10:43;101074.94;;;26.03;76.15
63204;BME280;49297;43.210;27.914;2023-07-22T00:13:12;101070.34;;;26.04;76.62
63204;BME280;49297;43.210;27.914;2023-07-22T00:15:40;101070.59;;;26.02;76.47
63204;BME280;49297;43.210;27.914;2023-07-22T00:18:09;101072.22;;;26.03;76.14
63204;BME280;49297;43.210;27.914;2023-07-22T00:20:37;101076.59;;;26.05;76.35
63204;BME280;49297;43.210;27.914;2023-07-22T00:23:06;101064.09;;;26.03;76.40
63204;BME280;49297;43.210;27.914;2023-07-22T00:25:34;101061.97;;;26.06;76.44
63204;BME280;49297;43.210;27.914;2023-07-22T00:28:03;101053.00;;;26.05;76.66
63204;BME280;49297;43.210;27.914;2023-07-22T00:30:31;101038.63;;;26.05;76.54
63204;BME280;49297;43.210;27.914;2023-07-22T00:33:00;101038.88;;;26.03;76.35
63204;BME280;49297;43.210;27.914;2023-07-22T00:35:28;101041.56;;;26.03;76.35
63204;BME280;49297;43.210;27.914;2023-07-22T00:37:59;101039.09;;;26.01;76.55
63204;BME280;49297;43.210;27.914;2023-07-22T00:40:28;101030.97;;;26.01;76.47
63204;BME280;49297;43.210;27.914;2023-07-22T00:43:00;101030.13;;;26.01;76.67
63204;BME280;49297;43.210;27.914;2023-07-22T00:45:28;101025.53;;;26.01;77.13
63204;BME280;49297;43.210;27.914;2023-07-22T00:47:57;101022.81;;;26.01;77.08
63204;BME280;49297;43.210;27.914;2023-07-22T00:50:26;101015.72;;;26.00;76.71
63204;BME280;49297;43.210;27.914;2023-07-22T00:52:54;101026.56;;;26.00;77.28
63204;BME280;49297;43.210;27.914;2023-07-22T00:55:23;101016.34;;;26.02;77.24
63204;BME280;49297;43.210;27.914;2023-07-22T00:57:51;101006.31;;;26.03;77.39
63204;BME280;49297;43.210;27.914;2023-07-22T01:00:21;101015.28;;;26.03;77.05
63204;BME280;49297;43.210;27.914;2023-07-22T01:02:50;101016.94;;;26.05;77.03
63204;BME280;49297;43.210;27.914;2023-07-22T01:05:18;101004.19;;;26.05;76.94
63204;BME280;49297;43.210;27.914;2023-07-22T01:07:46;101012.09;;;26.07;77.15
63204;BME280;49297;43.210;27.914;2023-07-22T01:10:15;101011.50;;;26.05;77.51
63204;BME280;49297;43.210;27.914;2023-07-22T01:12:44;101000.66;;;26.05;77.62
63204;BME280;49297;43.210;27.914;2023-07-22T01:15:12;101011.50;;;26.05;77.23
63204;BME280;49297;43.210;27.914;2023-07-22T01:17:41;101009.84;;;26.03;77.31
63204;BME280;49297;43.210;27.914;2023-07-22T01:20:11;101006.09;;;26.05;77.76
63204;BME280;49297;43.210;27.914;2023-07-22T01:22:42;101003.38;;;26.05;77.75
63204;BME280;49297;43.210;27.914;2023-07-22T01:25:11;101001.47;;;26.05;77.88
63204;BME280;49297;43.210;27.914;2023-07-22T01:27:39;100994.38;;;26.04;77.55
63204;BME280;49297;43.210;27.914;2023-07-22T01:30:09;100999.81;;;26.04;77.48
63204;BME280;49297;43.210;27.914;2023-07-22T01:32:38;100993.56;;;26.03;77.76
63204;BME280;49297;43.210;27.914;2023-07-22T01:35:08;100986.25;;;26.04;77.79
63204;BME280;49297;43.210;27.914;2023-07-22T01:37:37;100991.44;;;26.06;77.98
63204;BME280;49297;43.210;27.914;2023-07-22T01:40:07;100984.97;;;26.07;77.63
63204;BME280;49297;43.210;27.914;2023-07-22T01:42:41;100983.91;;;26.08;77.96
63204;BME280;49297;43.210;27.914;2023-07-22T01:45:11;100982.84;;;26.09;77.60
63204;BME280;49297;43.210;27.914;2023-07-22T01:47:40;100977.44;;;26.09;77.68
63204;BME280;49297;43.210;27.914;2023-07-22T01:50:09;100976.59;;;26.08;77.61
63204;BME280;49297;43.210;27.914;2023-07-22T01:52:38;100976.59;;;26.08;77.61
63204;BME280;49297;43.210;27.914;2023-07-22T01:55:08;100969.75;;;26.06;77.62
63204;BME280;49297;43.210;27.914;2023-07-22T01:57:38;100959.97;;;26.05;77.45
63204;BME280;49297;43.210;27.914;2023-07-22T02:00:08;100965.41;;;26.05;77.46
63204;BME280;49297;43.210;27.914;2023-07-22T02:02:38;100959.97;;;26.05;77.83
63204;BME280;49297;43.210;27.914;2023-07-22T02:05:08;100959.13;;;26.04;77.63
63204;BME280;49297;43.210;27.914;2023-07-22T02:07:56;100954.78;;;26.03;77.51
63204;BME280;49297;43.210;27.914;2023-07-22T02:10:24;100961.47;;;26.00;77.56
63204;BME280;49297;43.210;27.914;2023-07-22T02:12:52;100965.03;;;26.01;77.67
63204;BME280;49297;43.210;27.914;2023-07-22T02:15:21;100960.66;;;26.00;77.58
63204;BME280;49297;43.210;27.914;2023-07-22T02:17:51;100967.97;;;25.99;77.70
63204;BME280;49297;43.210;27.914;2023-07-22T02:20:19;100972.81;;;25.97;77.43
63204;BME280;49297;43.210;27.914;2023-07-22T02:22:48;100980.34;;;25.95;77.77
63204;BME280;49297;43.210;27.914;2023-07-22T02:25:16;100975.19;;;25.94;77.29
63204;BME280;49297;43.210;27.914;2023-07-22T02:27:45;100986.03;;;25.94;77.16
63204;BME280;49297;43.210;27.914;2023-07-22T02:30:13;100985.19;;;25.93;77.46
63204;BME280;49297;43.210;27.914;2023-07-22T02:32:42;100996.22;;;25.92;77.35
63204;BME280;49297;43.210;27.914;2023-07-22T02:35:10;100983.75;;;25.91;77.33
63204;BME280;49297;43.210;27.914;2023-07-22T02:37:39;100978.53;;;25.89;77.40
63204;BME280;49297;43.210;27.914;2023-07-22T02:40:08;100982.19;;;25.83;77.23
63204;BME280;49297;43.210;27.914;2023-07-22T02:42:40;100980.31;;;25.83;77.69
63204;BME280;49297;43.210;27.914;2023-07-22T02:45:10;100973.22;;;25.82;77.35
63204;BME280;49297;43.210;27.914;2023-07-22T02:47:39;100968.66;;;25.83;77.17
63204;BME280;49297;43.210;27.914;2023-07-22T02:50:09;100981.34;;;25.82;77.51
63204;BME280;49297;43.210;27.914;2023-07-22T02:52:38;100987.63;;;25.83;77.21
63204;BME280;49297;43.210;27.914;2023-07-22T02:55:10;100995.50;;;25.84;77.47
63204;BME280;49297;43.210;27.914;2023-07-22T02:57:41;100993.88;;;25.83;77.15
63204;BME280;49297;43.210;27.914;2023-07-22T03:00:10;100990.06;;;25.84;77.40
63204;BME280;49297;43.210;27.914;2023-07-22T03:02:40;100992.78;;;25.84;77.04
63204;BME280;49297;43.210;27.914;2023-07-22T03:05:09;100989.25;;;25.84;77.02
63204;BME280;49297;43.210;27.914;2023-07-22T03:07:39;100994.69;;;25.84;76.90
63204;BME280;49297;43.210;27.914;2023-07-22T03:10:08;101000.91;;;25.84;77.24
63204;BME280;49297;43.210;27.914;2023-07-22T03:12:37;100993.63;;;25.85;76.77
63204;BME280;49297;43.210;27.914;2023-07-22T03:15:08;100995.75;;;25.83;77.39
63204;BME280;49297;43.210;27.914;2023-07-22T03:17:37;101003.41;;;25.86;77.10
63204;BME280;49297;43.210;27.914;2023-07-22T03:20:07;101020.53;;;25.87;77.20
63204;BME280;49297;43.210;27.914;2023-07-22T03:22:47;101031.72;;;25.90;76.75
63204;BME280;49297;43.210;27.914;2023-07-22T03:25:16;101042.31;;;25.92;76.79
63204;BME280;49297;43.210;27.914;2023-07-22T03:27:45;101056.53;;;25.94;76.30
63204;BME280;49297;43.210;27.914;2023-07-22T03:30:32;101065.25;;;25.96;76.52
63204;BME280;49297;43.210;27.914;2023-07-22T03:33:01;101063.38;;;25.96;76.25
63204;BME280;49297;43.210;27.914;2023-07-22T03:35:29;101055.38;;;26.01;76.35
63204;BME280;49297;43.210;27.914;2023-07-22T03:37:57;101048.91;;;26.02;75.94
63204;BME280;49297;43.210;27.914;2023-07-22T03:40:26;101044.88;;;26.05;76.16
63204;BME280;49297;43.210;27.914;2023-07-22T03:42:58;101046.06;;;26.09;75.80
63204;BME280;49297;43.210;27.914;2023-07-22T03:45:26;101032.63;;;26.14;76.08
63204;BME280;49297;43.210;27.914;2023-07-22T03:47:58;101023.22;;;26.17;75.79
63204;BME280;49297;43.210;27.914;2023-07-22T03:50:27;101022.47;;;26.21;75.52
63204;BME280;49297;43.210;27.914;2023-07-22T03:52:55;101024.16;;;26.23;75.58
63204;BME280;49297;43.210;27.914;2023-07-22T03:55:24;101027.44;;;26.25;75.62
63204;BME280;49297;43.210;27.914;2023-07-22T03:57:52;101027.22;;;26.26;75.34
63204;BME280;49297;43.210;27.914;2023-07-22T04:00:21;101043.28;;;26.28;75.25
63204;BME280;49297;43.210;27.914;2023-07-22T04:02:49;101035.72;;;26.30;74.98
63204;BME280;49297;43.210;27.914;2023-07-22T04:05:17;101039.25;;;26.30;74.96
63204;BME280;49297;43.210;27.914;2023-07-22T04:07:46;101033.59;;;26.32;75.12
63204;BME280;49297;43.210;27.914;2023-07-22T04:10:14;101025.44;;;26.32;75.29
63204;BME280;49297;43.210;27.914;2023-07-22T04:12:43;101025.44;;;26.32;75.30
63204;BME280;49297;43.210;27.914;2023-07-22T04:15:11;101023.09;;;26.35;74.97
63204;BME280;49297;43.210;27.914;2023-07-22T04:17:40;101016.25;;;26.45;74.81
63204;BME280;49297;43.210;27.914;2023-07-22T04:20:10;101014.97;;;26.47;74.62
63204;BME280;49297;43.210;27.914;2023-07-22T04:22:39;101014.97;;;26.47;74.66
63204;BME280;49297;43.210;27.914;2023-07-22T04:25:09;101018.03;;;26.51;74.79
63204;BME280;49297;43.210;27.914;2023-07-22T04:27:37;101023.19;;;26.52;74.80
63204;BME280;49297;43.210;27.914;2023-07-22T04:30:07;101017.53;;;26.54;74.37
63204;BME280;49297;43.210;27.914;2023-07-22T04:32:37;101013.19;;;26.53;74.56
63204;BME280;49297;43.210;27.914;2023-07-22T04:35:07;101007.53;;;26.54;74.01
63204;BME280;49297;43.210;27.914;2023-07-22T04:37:37;101010.81;;;26.56;74.13
63204;BME280;49297;43.210;27.914;2023-07-22T04:40:07;101003.50;;;26.57;74.08
63204;BME280;49297;43.210;27.914;2023-07-22T04:42:41;101009.91;;;26.63;73.36
63204;BME280;49297;43.210;27.914;2023-07-22T04:45:11;101016.88;;;26.70;73.22
63204;BME280;49297;43.210;27.914;2023-07-22T04:47:40;101016.72;;;26.77;72.70
63204;BME280;49297;43.210;27.914;2023-07-22T04:50:11;101015.22;;;26.81;72.66
63204;BME280;49297;43.210;27.914;2023-07-22T04:52:42;101019.31;;;26.84;72.11
63204;BME280;49297;43.210;27.914;2023-07-22T04:55:12;101029.22;;;26.90;72.01
63204;BME280;49297;43.210;27.914;2023-07-22T04:57:41;101027.47;;;26.95;71.75
63204;BME280;49297;43.210;27.914;2023-07-22T05:00:13;101025.56;;;26.96;70.81
63204;BME280;49297;43.210;27.914;2023-07-22T05:02:43;101027.31;;;27.02;70.70
63204;BME280;49297;43.210;27.914;2023-07-22T05:05:12;101035.09;;;27.10;70.39
63204;BME280;49297;43.210;27.914;2023-07-22T05:07:41;101035.44;;;27.14;69.38
63204;BME280;49297;43.210;27.914;2023-07-22T05:10:10;101032.50;;;27.15;68.61
63204;BME280;49297;43.210;27.914;2023-07-22T05:12:42;101035.31;;;27.21;68.30
63204;BME280;49297;43.210;27.914;2023-07-22T05:15:12;101028.09;;;27.26;68.28
63204;BME280;49297;43.210;27.914;2023-07-22T05:17:40;101039.31;;;27.30;68.11
63204;BME280;49297;43.210;27.914;2023-07-22T05:20:09;101031.84;;;27.37;67.85
63204;BME280;49297;43.210;27.914;2023-07-22T05:22:58;101042.59;;;27.44;67.75
63204;BME280;49297;43.210;27.914;2023-07-22T05:25:27;101035.94;;;27.51;67.62
63204;BME280;49297;43.210;27.914;2023-07-22T05:27:55;101028.69;;;27.57;67.25
63204;BME280;49297;43.210;27.914;2023-07-22T05:30:23;101036.94;;;27.62;66.27
63204;BME280;49297;43.210;27.914;2023-07-22T05:32:52;101025.69;;;27.70;65.63
63204;BME280;49297;43.210;27.914;2023-07-22T05:35:20;101016.53;;;27.77;64.79
63204;BME280;49297;43.210;27.914;2023-07-22T05:37:49;101010.38;;;27.81;64.43
63204;BME280;49297;43.210;27.914;2023-07-22T05:40:17;101006.91;;;27.86;64.59
63204;BME280;49297;43.210;27.914;2023-07-22T05:42:46;101011.84;;;27.89;64.26
63204;BME280;49297;43.210;27.914;2023-07-22T05:45:14;101015.19;;;27.91;63.66
63204;BME280;49297;43.210;27.914;2023-07-22T05:47:43;101016.09;;;27.97;63.80
63204;BME280;49297;43.210;27.914;2023-07-22T05:50:11;101017.19;;;27.96;63.30
63204;BME280;49297;43.210;27.914;2023-07-22T05:52:40;101015.03;;;27.98;63.00
63204;BME280;49297;43.210;27.914;2023-07-22T05:55:08;101019.16;;;28.00;63.08
63204;BME280;49297;43.210;27.914;2023-07-22T05:57:37;101012.41;;;28.03;63.10
63204;BME280;49297;43.210;27.914;2023-07-22T06:00:07;101013.78;;;28.05;62.71
63204;BME280;49297;43.210;27.914;2023-07-22T06:02:40;101005.13;;;28.08;62.74
63204;BME280;49297;43.210;27.914;2023-07-22T06:05:08;101010.41;;;28.15;62.87
63204;BME280;49297;43.210;27.914;2023-07-22T06:07:37;101002.91;;;28.22;62.41
63204;BME280;49297;43.210;27.914;2023-07-22T06:10:07;100993.16;;;28.26;62.30
63204;BME280;49297;43.210;27.914;2023-07-22T06:12:37;100985.91;;;28.32;62.97
63204;BME280;49297;43.210;27.914;2023-07-22T06:15:07;100982.69;;;28.35;62.98
63204;BME280;49297;43.210;27.914;2023-07-22T06:17:36;100970.22;;;28.39;63.61
63204;BME280;49297;43.210;27.914;2023-07-22T06:20:07;100961.31;;;28.44;64.00
63204;BME280;49297;43.210;27.914;2023-07-22T06:22:37;100959.72;;;28.48;64.19
63204;BME280;49297;43.210;27.914;2023-07-22T06:25:06;100968.75;;;28.48;64.24
63204;BME280;49297;43.210;27.914;2023-07-22T06:27:35;100966.75;;;28.44;63.77
63204;BME280;49297;43.210;27.914;2023-07-22T06:30:05;100969.22;;;28.45;64.16
63204;BME280;49297;43.210;27.914;2023-07-22T06:32:39;100960.88;;;28.52;64.52
63204;BME280;49297;43.210;27.914;2023-07-22T06:35:08;100958.53;;;28.56;64.74
63204;BME280;49297;43.210;27.914;2023-07-22T06:37:36;100954.44;;;28.58;64.45
63204;BME280;49297;43.210;27.914;2023-07-22T06:40:07;100967.16;;;28.53;64.48
63204;BME280;49297;43.210;27.914;2023-07-22T06:42:36;100965.41;;;28.46;65.05
63204;BME280;49297;43.210;27.914;2023-07-22T06:45:06;100969.22;;;28.45;64.93
63204;BME280;49297;43.210;27.914;2023-07-22T06:47:36;100971.72;;;28.47;64.67
63204;BME280;49297;43.210;27.914;2023-07-22T06:50:06;100966.00;;;28.48;64.58
63204;BME280;49297;43.210;27.914;2023-07-22T06:52:34;100968.75;;;28.48;64.37
63204;BME280;49297;43.210;27.914;2023-07-22T06:55:04;100976.22;;;28.41;64.82
63204;BME280;49297;43.210;27.914;2023-07-22T06:57:34;100979.56;;;28.43;64.96
63204;BME280;49297;43.210;27.914;2023-07-22T07:00:02;100979.88;;;28.47;64.92
63204;BME280;49297;43.210;27.914;2023-07-22T07:02:30;100981.81;;;28.52;64.97
63204;BME280;49297;43.210;27.914;2023-07-22T07:04:59;100977.31;;;28.57;64.55
63204;BME280;49297;43.210;27.914;2023-07-22T07:07:28;100987.19;;;28.63;64.37
63204;BME280;49297;43.210;27.914;2023-07-22T07:09:56;100972.81;;;28.68;64.34
63204;BME280;49297;43.210;27.914;2023-07-22T07:12:24;100968.84;;;28.76;64.34
63204;BME280;49297;43.210;27.914;2023-07-22T07:14:53;100976.56;;;28.84;64.16
63204;BME280;49297;43.210;27.914;2023-07-22T07:17:22;100973.91;;;28.89;63.97
63204;BME280;49297;43.210;27.914;2023-07-22T07:19:50;100969.94;;;28.97;63.57
63204;BME280;49297;43.210;27.914;2023-07-22T07:22:18;100973.59;;;29.08;63.52
63204;BME280;49297;43.210;27.914;2023-07-22T07:24:47;100972.50;;;29.09;63.22
63204;BME280;49297;43.210;27.914;2023-07-22T07:27:15;100962.09;;;29.05;63.23
63204;BME280;49297;43.210;27.914;2023-07-22T07:29:43;100966.72;;;29.05;63.55
63204;BME280;49297;43.210;27.914;2023-07-22T07:32:12;100964.06;;;29.10;63.17
63204;BME280;49297;43.210;27.914;2023-07-22T07:34:40;100971.00;;;29.18;63.33
63204;BME280;49297;43.210;27.914;2023-07-22T07:37:09;100977.38;;;29.29;62.84
63204;BME280;49297;43.210;27.914;2023-07-22T07:39:37;100976.38;;;29.35;62.52
63204;BME280;49297;43.210;27.914;2023-07-22T07:42:06;100980.28;;;29.44;62.05
63204;BME280;49297;43.210;27.914;2023-07-22T07:44:35;100974.88;;;29.49;61.94
63204;BME280;49297;43.210;27.914;2023-07-22T07:47:03;100976.25;;;29.52;62.05
63204;BME280;49297;43.210;27.914;2023-07-22T07:49:34;100964.06;;;29.59;62.38
63204;BME280;49297;43.210;27.914;2023-07-22T07:52:02;100962.97;;;29.60;61.45
63204;BME280;49297;43.210;27.914;2023-07-22T07:54:31;100960.25;;;29.60;61.89
63204;BME280;49297;43.210;27.914;2023-07-22T07:56:59;100947.44;;;29.61;62.09
63204;BME280;49297;43.210;27.914;2023-07-22T07:59:27;100946.69;;;29.71;62.10
63204;BME280;49297;43.210;27.914;2023-07-22T08:01:55;100947.34;;;29.78;62.21
63204;BME280;49297;43.210;27.914;2023-07-22T08:04:24;100947.16;;;29.90;61.52
63204;BME280;49297;43.210;27.914;2023-07-22T08:06:52;100948.06;;;30.01;61.92
63204;BME280;49297;43.210;27.914;2023-07-22T08:09:21;100943.16;;;30.03;62.35
63204;BME280;49297;43.210;27.914;2023-07-22T08:11:49;100938.50;;;30.03;62.21
63204;BME280;49297;43.210;27.914;2023-07-22T08:14:18;100943.75;;;30.10;61.69
63204;BME280;49297;43.210;27.914;2023-07-22T08:16:46;100939.69;;;30.17;61.07
63204;BME280;49297;43.210;27.914;2023-07-22T08:19:14;100938.09;;;30.22;60.76
63204;BME280;49297;43.210;27.914;2023-07-22T08:21:43;100941.13;;;30.30;59.75
63204;BME280;49297;43.210;27.914;2023-07-22T08:24:11;100939.03;;;30.38;59.64
63204;BME280;49297;43.210;27.914;2023-07-22T08:26:40;100937.19;;;30.48;60.39
63204;BME280;49297;43.210;27.914;2023-07-22T08:29:24;100933.66;;;30.58;59.69
63204;BME280;49297;43.210;27.914;2023-07-22T08:31:53;100929.56;;;30.61;60.11
63204;BME280;49297;43.210;27.914;2023-07-22T08:34:21;100934.25;;;30.65;59.65
63204;BME280;49297;43.210;27.914;2023-07-22T08:36:50;100930.19;;;30.68;60.11
63204;BME280;49297;43.210;27.914;2023-07-22T08:39:19;100940.53;;;30.66;59.67
63204;BME280;49297;43.210;27.914;2023-07-22T08:41:49;100935.94;;;30.71;60.21
63204;BME280;49297;43.210;27.914;2023-07-22T08:44:20;100937.81;;;30.71;59.77
63204;BME280;49297;43.210;27.914;2023-07-22T08:46:50;100934.75;;;30.57;59.89
63204;BME280;49297;43.210;27.914;2023-07-22T08:49:22;100942.06;;;30.46;60.64
63204;BME280;49297;43.210;27.914;2023-07-22T08:51:51;100943.47;;;30.49;61.49
63204;BME280;49297;43.210;27.914;2023-07-22T08:54:20;100942.09;;;30.51;60.65
63204;BME280;49297;43.210;27.914;2023-07-22T08:56:49;100948.94;;;30.49;60.84
63204;BME280;49297;43.210;27.914;2023-07-22T08:59:18;100943.50;;;30.54;61.09
63204;BME280;49297;43.210;27.914;2023-07-22T09:01:47;100941.59;;;30.60;60.81
63204;BME280;49297;43.210;27.914;2023-07-22T09:04:16;100939.09;;;30.53;61.09
63204;BME280;49297;43.210;27.914;2023-07-22T09:06:46;100931.72;;;30.53;60.94
63204;BME280;49297;43.210;27.914;2023-07-22T09:09:15;100941.06;;;30.63;60.98
63204;BME280;49297;43.210;27.914;2023-07-22T09:11:43;100926.59;;;30.67;60.69
63204;BME280;49297;43.210;27.914;2023-07-22T09:14:13;100928.72;;;30.55;61.28
63204;BME280;49297;43.210;27.914;2023-07-22T09:16:43;100928.44;;;30.51;60.99
63204;BME280;49297;43.210;27.914;2023-07-22T09:19:11;100925.41;;;30.48;61.55
63204;BME280;49297;43.210;27.914;2023-07-22T09:21:40;100924.09;;;30.50;61.31
63204;BME280;49297;43.210;27.914;2023-07-22T09:24:40;100919.97;;;30.53;61.28
63204;BME280;49297;43.210;27.914;2023-07-22T09:27:09;100919.47;;;30.56;61.16
63204;BME280;49297;43.210;27.914;2023-07-22T09:29:39;100917.56;;;30.62;60.78
63204;BME280;49297;43.210;27.914;2023-07-22T09:32:08;100906.38;;;30.63;60.08
63204;BME280;49297;43.210;27.914;2023-07-22T09:34:36;100918.13;;;30.69;60.30
63204;BME280;49297;43.210;27.914;2023-07-22T09:37:05;100915.41;;;30.69;59.03
63204;BME280;49297;43.210;27.914;2023-07-22T09:39:35;100905.03;;;30.71;59.18
63204;BME280;49297;43.210;27.914;2023-07-22T09:42:04;100905.06;;;30.76;58.71
63204;BME280;49297;43.210;27.914;2023-07-22T09:44:33;100905.09;;;30.86;58.93
63204;BME280;49297;43.210;27.914;2023-07-22T09:47:07;100898.50;;;30.87;59.19
63204;BME280;49297;43.210;27.914;2023-07-22T09:49:40;100902.41;;;30.97;59.00
63204;BME280;49297;43.210;27.914;2023-07-22T09:52:10;100901.03;;;30.94;58.39
63204;BME280;49297;43.210;27.914;2023-07-22T09:54:48;100898.31;;;31.04;58.17
63204;BME280;49297;43.210;27.914;2023-07-22T09:57:18;100895.06;;;31.18;58.04
63204;BME280;49297;43.210;27.914;2023-07-22T09:59:50;100893.19;;;31.28;58.22
63204;BME280;49297;43.210;27.914;2023-07-22T10:02:21;100887.69;;;31.34;57.55
63204;BME280;49297;43.210;27.914;2023-07-22T10:04:55;100888.25;;;31.30;57.66
63204;BME280;49297;43.210;27.914;2023-07-22T10:07:27;100889.88;;;31.37;57.66
63204;BME280;49297;43.210;27.914;2023-07-22T10:09:55;100879.53;;;31.49;57.02
63204;BME280;49297;43.210;27.914;2023-07-22T10:12:25;100875.69;;;31.60;56.66
63204;BME280;49297;43.210;27.914;2023-07-22T10:14:55;100874.59;;;31.72;55.73
63204;BME280;49297;43.210;27.914;2023-07-22T10:17:24;100872.94;;;31.76;55.69
63204;BME280;49297;43.210;27.914;2023-07-22T10:19:55;100869.66;;;31.79;56.29
63204;BME280;49297;43.210;27.914;2023-07-22T10:22:24;100874.56;;;31.87;55.98
63204;BME280;49297;43.210;27.914;2023-07-22T10:24:53;100872.09;;;31.85;55.99
63204;BME280;49297;43.210;27.914;2023-07-22T10:27:22;100873.44;;;32.03;55.49
63204;BME280;49297;43.210;27.914;2023-07-22T10:29:51;100875.88;;;32.15;55.19
63204;BME280;49297;43.210;27.914;2023-07-22T10:32:20;100880.19;;;32.37;55.22
63204;BME280;49297;43.210;27.914;2023-07-22T10:34:49;100864.25;;;32.59;54.38
63204;BME280;49297;43.210;27.914;2023-07-22T10:37:20;100864.69;;;32.82;54.55
63204;BME280;49297;43.210;27.914;2023-07-22T10:39:51;100866.53;;;32.87;53.80
63204;BME280;49297;43.210;27.914;2023-07-22T10:42:26;100859.34;;;32.96;53.59
63204;BME280;49297;43.210;27.914;2023-07-22T10:44:54;100861.78;;;33.03;53.44
63204;BME280;49297;43.210;27.914;2023-07-22T10:47:34;100863.56;;;33.23;53.14
63204;BME280;49297;43.210;27.914;2023-07-22T10:50:08;100869.72;;;33.44;52.67
63204;BME280;49297;43.210;27.914;2023-07-22T10:52:44;100869.63;;;33.54;52.47
63204;BME280;49297;43.210;27.914;2023-07-22T10:55:29;100865.53;;;33.86;51.67
63204;BME280;49297;43.210;27.914;2023-07-22T10:58:04;100865.50;;;34.10;51.18
63204;BME280;49297;43.210;27.914;2023-07-22T11:00:32;100867.03;;;34.26;50.71
63204;BME280;49297;43.210;27.914;2023-07-22T11:03:11;100866.91;;;34.56;50.01
63204;BME280;49297;43.210;27.914;2023-07-22T11:05:53;100866.34;;;34.78;49.33
63204;BME280;49297;43.210;27.914;2023-07-22T11:08:36;100867.19;;;34.35;50.06
63204;BME280;49297;43.210;27.914;2023-07-22T11:11:05;100869.44;;;34.04;50.53
63204;BME280;49297;43.210;27.914;2023-07-22T11:13:39;100876.03;;;33.79;50.46
63204;BME280;49297;43.210;27.914;2023-07-22T11:16:11;100871.28;;;33.84;50.82
63204;BME280;49297;43.210;27.914;2023-07-22T11:18:41;100862.34;;;33.98;50.25
63204;BME280;49297;43.210;27.914;2023-07-22T11:21:12;100865.59;;;34.29;49.63
63204;BME280;49297;43.210;27.914;2023-07-22T11:23:41;100857.28;;;34.77;48.60
63204;BME280;49297;43.210;27.914;2023-07-22T11:26:10;100848.94;;;35.20;47.39
63204;BME280;49297;43.210;27.914;2023-07-22T11:28:38;100855.19;;;35.59;46.51
63204;BME280;49297;43.210;27.914;2023-07-22T11:31:08;100848.59;;;35.74;46.32
63204;BME280;49297;43.210;27.914;2023-07-22T11:33:40;100845.16;;;35.82;46.42
63204;BME280;49297;43.210;27.914;2023-07-22T11:36:10;100843.50;;;36.09;45.28
63204;BME280;49297;43.210;27.914;2023-07-22T11:38:39;100842.28;;;36.15;45.46
63204;BME280;49297;43.210;27.914;2023-07-22T11:41:08;100838.25;;;36.76;43.72
63204;BME280;49297;43.210;27.914;2023-07-22T11:43:38;100848.44;;;37.35;42.01
63204;BME280;49297;43.210;27.914;2023-07-22T11:46:07;100828.06;;;37.53;41.73
63204;BME280;49297;43.210;27.914;2023-07-22T11:48:35;100839.09;;;37.76;41.13
63204;BME280;49297;43.210;27.914;2023-07-22T11:51:04;100838.81;;;37.95;40.77
63204;BME280;49297;43.210;27.914;2023-07-22T11:53:33;100844.13;;;38.23;40.58
63204;BME280;49297;43.210;27.914;2023-07-22T11:56:03;100841.63;;;38.61;39.74
63204;BME280;49297;43.210;27.914;2023-07-22T11:58:33;100833.63;;;38.95;39.64
63204;BME280;49297;43.210;27.914;2023-07-22T12:01:06;100833.59;;;39.30;38.95
63204;BME280;49297;43.210;27.914;2023-07-22T12:03:34;100834.06;;;39.49;38.48
63204;BME280;49297;43.210;27.914;2023-07-22T12:06:03;100826.16;;;39.69;38.52
63204;BME280;49297;43.210;27.914;2023-07-22T12:08:32;100826.47;;;39.76;38.17
63204;BME280;49297;43.210;27.914;2023-07-22T12:11:01;100824.63;;;39.80;37.97
63204;BME280;49297;43.210;27.914;2023-07-22T12:13:36;100821.69;;;39.85;38.09
63204;BME280;49297;43.210;27.914;2023-07-22T12:16:06;100829.94;;;40.03;38.07
63204;BME280;49297;43.210;27.914;2023-07-22T12:18:47;100828.72;;;40.12;37.70
63204;BME280;49297;43.210;27.914;2023-07-22T12:21:16;100834.75;;;40.14;37.59
63204;BME280;49297;43.210;27.914;2023-07-22T12:23:46;100823.66;;;40.14;37.22
63204;BME280;49297;43.210;27.914;2023-07-22T12:26:14;100823.78;;;40.18;37.30
63204;BME280;49297;43.210;27.914;2023-07-22T12:28:43;100829.00;;;40.20;37.15
63204;BME280;49297;43.210;27.914;2023-07-22T12:31:11;100823.28;;;40.25;36.94
63204;BME280;49297;43.210;27.914;2023-07-22T12:33:39;100821.41;;;40.38;36.87
63204;BME280;49297;43.210;27.914;2023-07-22T12:36:08;100825.16;;;40.42;36.73
63204;BME280;49297;43.210;27.914;2023-07-22T12:38:36;100822.97;;;40.47;36.59
63204;BME280;49297;43.210;27.914;2023-07-22T12:41:05;100809.72;;;40.53;36.54
63204;BME280;49297;43.210;27.914;2023-07-22T12:43:33;100804.44;;;40.60;36.31
63204;BME280;49297;43.210;27.914;2023-07-22T12:46:01;100805.47;;;40.56;36.19
63204;BME280;49297;43.210;27.914;2023-07-22T12:48:29;100812.28;;;40.37;36.08
63204;BME280;49297;43.210;27.914;2023-07-22T12:50:58;100814.22;;;40.15;36.41
63204;BME280;49297;43.210;27.914;2023-07-22T12:53:27;100818.09;;;39.93;37.01